Time;durP1;ratioP1;P1;durP2;ratioP2;P2;SDS_P1;SDS_P2;PMS_P1;PMS_P2;Temp;Humidity;BMP_temperature;BMP_pressure;BME280_temperature;BME280_humidity;BME280_pressure;Samples;Min_cycle;Max_cycle;Signal;HPM_P1;HPM_P2
2023/03/19 00:00:14;;;;;;;;;;;13.20;99.90;;;;;;4989268;28;19911;-89
2023/03/19 00:02:40;;;;;;;;;;;13.10;99.90;;;;;;4997340;28;19914;-89
2023/03/19 00:05:06;;;;;;;;;;;13.10;99.90;;;;;;5009295;28;19973;-89
2023/03/19 00:07:34;;;;;;;;;;;13.00;99.90;;;;;;5009366;28;19910;-89
2023/03/19 00:10:17;;;;;;;;;;;13.00;99.90;;;;;;5010758;28;19929;-89
2023/03/19 00:12:43;;;;;;;;;;;13.00;99.90;;;;;;5012009;28;19914;-89
2023/03/19 00:15:17;;;;;;;;;;;12.90;99.90;;;;;;5011683;28;19916;-89
2023/03/19 00:17:43;;;;;;;;;;;12.90;99.90;;;;;;5013064;28;19914;-90
2023/03/19 00:20:19;;;;;;;;;;;12.80;99.90;;;;;;5012694;28;20036;-90
2023/03/19 00:22:45;;;;;;;;;;;12.80;99.90;;;;;;5004901;28;19898;-88
2023/03/19 00:25:13;;;;;;;;;;;12.70;99.90;;;;;;5019695;28;19925;-89
2023/03/19 00:27:41;;;;;;;;;;;12.60;99.90;;;;;;5017583;28;20014;-89
2023/03/19 00:30:07;;;;;;;;;;;12.60;99.90;;;;;;5010410;28;19917;-89
2023/03/19 00:32:39;;;;;;;;;;;12.60;99.90;;;;;;5012872;28;19913;-89
2023/03/19 00:35:10;;;;;;;;;;;12.60;99.90;;;;;;4992089;28;19920;-90
2023/03/19 00:37:41;;;;;;;;;;;12.60;99.90;;;;;;5016099;28;19909;-90
2023/03/19 00:40:10;;;;;;;;;;;12.40;99.90;;;;;;4984409;28;19964;-88
2023/03/19 00:42:43;;;;;;;;;;;12.50;99.90;;;;;;4999673;28;20329;-87
2023/03/19 00:45:12;;;;;;;;;;;12.40;99.90;;;;;;5015512;28;19916;-87
2023/03/19 00:47:38;;;;;;;;;;;12.40;99.90;;;;;;5003599;28;19917;-88
2023/03/19 00:50:07;;;;;;;;;;;12.40;99.90;;;;;;4998763;28;19921;-88
2023/03/19 00:52:33;;;;;;;;;;;12.40;99.90;;;;;;5015712;28;19916;-87
2023/03/19 00:55:01;;;;;;;;;;;12.30;99.90;;;;;;5015006;28;19917;-88
2023/03/19 00:57:30;;;;;;;;;;;12.40;99.90;;;;;;5014977;28;20298;-88
2023/03/19 00:59:55;;;;;;;;;;;12.30;99.90;;;;;;4999464;28;19913;-90
2023/03/19 01:02:21;;;;;;;;;;;12.30;99.90;;;;;;5015820;28;19910;-90
2023/03/19 01:04:49;;;;;;;;;;;12.20;99.90;;;;;;5015743;28;19910;-89
2023/03/19 01:07:18;;;;;;;;;;;12.20;99.90;;;;;;4999784;28;19917;-90
2023/03/19 01:09:44;;;;;;;;;;;12.20;99.90;;;;;;5016416;28;19920;-89
2023/03/19 01:12:09;;;;;;;;;;;12.20;99.90;;;;;;4987980;28;19917;-90
2023/03/19 01:14:35;;;;;;;;;;;12.20;99.90;;;;;;5022907;28;20008;-89
2023/03/19 01:17:01;;;;;;;;;;;12.20;99.90;;;;;;4990036;28;19964;-90
2023/03/19 01:19:29;;;;;;;;;;;12.20;99.90;;;;;;5002296;28;19916;-89
2023/03/19 01:21:56;;;;;;;;;;;12.20;99.90;;;;;;5015443;28;19910;-90
2023/03/19 01:24:22;;;;;;;;;;;12.20;99.90;;;;;;5013334;28;19916;-89
2023/03/19 01:26:47;;;;;;;;;;;12.20;99.90;;;;;;4998095;28;19910;-89
2023/03/19 01:29:15;;;;;;;;;;;12.10;99.90;;;;;;4970188;28;19918;-90
2023/03/19 01:31:44;;;;;;;;;;;12.10;99.90;;;;;;4963350;28;19914;-90
2023/03/19 01:34:10;;;;;;;;;;;12.10;99.90;;;;;;4963753;28;19918;-90
2023/03/19 01:36:38;;;;;;;;;;;12.10;99.90;;;;;;4963313;28;19913;-89
2023/03/19 01:39:09;;;;;;;;;;;12.00;99.90;;;;;;4980945;28;19910;-89
2023/03/19 01:41:37;;;;;;;;;;;12.00;99.90;;;;;;4967953;28;19914;-90
2023/03/19 01:44:21;;;;;;;;;;;12.00;99.90;;;;;;4987679;28;19934;-90
2023/03/19 01:46:52;;;;;;;;;;;12.00;99.90;;;;;;5001256;28;19901;-90
2023/03/19 01:49:19;;;;;;;;;;;11.80;99.90;;;;;;4977068;28;20275;-88
2023/03/19 01:51:46;;;;;;;;;;;11.90;99.90;;;;;;4969515;28;19918;-88
2023/03/19 01:54:17;;;;;;;;;;;11.80;99.90;;;;;;4959192;28;19914;-88
2023/03/19 02:00:05;;;;;;;;;;;11.80;99.90;;;;;;4976411;28;19956;-88
2023/03/19 02:02:57;;;;;;;;;;;11.90;99.90;;;;;;4959477;28;20359;-88
2023/03/19 02:05:49;;;;;;;;;;;11.90;99.90;;;;;;4951105;28;19914;-93
2023/03/19 02:08:18;;;;;;;;;;;12.00;99.90;;;;;;4922422;29;19954;-95
2023/03/19 02:10:46;;;;;;;;;;;12.00;99.90;;;;;;4906608;28;19911;-94
2023/03/19 02:19:22;;;;;;;;;;;12.00;99.90;;;;;;4940292;29;19934;-93
2023/03/19 02:21:48;;;;;;;;;;;12.10;99.90;;;;;;4978599;28;19909;-90
2023/03/19 02:24:13;;;;;;;;;;;12.10;99.90;;;;;;4984622;28;20382;-90
2023/03/19 02:26:40;;;;;;;;;;;12.10;99.90;;;;;;4983727;28;19918;-89
2023/03/19 02:29:06;;;;;;;;;;;12.10;99.90;;;;;;4996073;28;19926;-89
2023/03/19 02:31:32;;;;;;;;;;;12.10;99.90;;;;;;4994396;28;20439;-90
2023/03/19 02:34:17;;;;;;;;;;;;;;;;;;;;;
2023/03/19 02:36:50;;;;;;;;;;;12.10;99.90;;;;;;4988448;28;19910;-89
2023/03/19 02:39:21;;;;;;;;;;;12.10;99.90;;;;;;4994366;28;20274;-89
2023/03/19 02:41:53;;;;;;;;;;;12.20;99.90;;;;;;4994277;28;19917;-90
2023/03/19 02:44:19;;;;;;;;;;;12.20;99.90;;;;;;4994424;28;19949;-89
2023/03/19 02:46:45;;;;;;;;;;;12.20;99.90;;;;;;4994326;28;19910;-90
2023/03/19 02:49:19;;;;;;;;;;;12.10;99.90;;;;;;4995132;28;19914;-90
2023/03/19 02:51:48;;;;;;;;;;;12.10;99.90;;;;;;4986861;28;19963;-90
2023/03/19 02:54:16;;;;;;;;;;;12.10;99.90;;;;;;4977810;28;19914;-89
2023/03/19 02:56:45;;;;;;;;;;;12.10;99.90;;;;;;4994820;28;19909;-90
2023/03/19 02:59:10;;;;;;;;;;;12.10;99.90;;;;;;4994901;28;19914;-90
2023/03/19 03:01:42;;;;;;;;;;;12.20;99.90;;;;;;4995723;28;19921;-92
2023/03/19 03:04:13;;;;;;;;;;;12.20;99.90;;;;;;4997325;28;19925;-93
2023/03/19 03:06:44;;;;;;;;;;;12.20;99.90;;;;;;4996351;28;19916;-94
2023/03/19 03:09:11;;;;;;;;;;;12.20;99.90;;;;;;4996944;28;19979;-90
2023/03/19 03:11:39;;;;;;;;;;;12.20;99.90;;;;;;4995482;28;19909;-90
2023/03/19 03:14:05;;;;;;;;;;;12.20;99.90;;;;;;4979178;28;19913;-91
2023/03/19 03:16:31;;;;;;;;;;;12.20;99.90;;;;;;4995133;28;19916;-90
2023/03/19 03:18:57;;;;;;;;;;;12.20;99.90;;;;;;4994407;28;19949;-89
2023/03/19 03:21:24;;;;;;;;;;;12.20;99.90;;;;;;4994160;28;19914;-89
2023/03/19 03:23:50;;;;;;;;;;;12.20;99.90;;;;;;4994713;28;20363;-88
2023/03/19 03:26:17;;;;;;;;;;;12.20;99.90;;;;;;4995077;28;19917;-90
2023/03/19 03:28:42;;;;;;;;;;;12.20;99.90;;;;;;4996469;28;19926;-90
2023/03/19 03:31:08;;;;;;;;;;;12.20;99.90;;;;;;5012146;28;19921;-91
2023/03/19 03:33:34;;;;;;;;;;;12.10;99.90;;;;;;5007493;28;20271;-90
2023/03/19 03:36:02;;;;;;;;;;;12.20;99.90;;;;;;4996233;28;19913;-90
2023/03/19 03:38:28;;;;;;;;;;;12.20;99.90;;;;;;4995982;28;19910;-90
2023/03/19 03:40:54;;;;;;;;;;;12.20;99.90;;;;;;4995410;28;19961;-92
2023/03/19 03:43:20;;;;;;;;;;;12.20;99.90;;;;;;5001835;28;19936;-91
2023/03/19 03:45:49;;;;;;;;;;;12.20;99.90;;;;;;5000304;28;20365;-90
2023/03/19 03:48:15;;;;;;;;;;;12.20;99.90;;;;;;4982408;28;20058;-90
2023/03/19 03:50:43;;;;;;;;;;;12.20;99.90;;;;;;4997884;28;19946;-90
2023/03/19 03:53:11;;;;;;;;;;;12.20;99.90;;;;;;4997978;28;19917;-90
2023/03/19 03:55:36;;;;;;;;;;;12.20;99.90;;;;;;4998196;28;19995;-91
2023/03/19 03:58:05;;;;;;;;;;;12.20;99.90;;;;;;4999227;28;19909;-91
2023/03/19 04:00:31;;;;;;;;;;;12.20;99.90;;;;;;5007923;28;19910;-90
2023/03/19 04:02:58;;;;;;;;;;;12.20;99.90;;;;;;5005943;28;19917;-89
2023/03/19 04:05:46;;;;;;;;;;;12.20;99.90;;;;;;4997215;28;20359;-88
2023/03/19 04:08:11;;;;;;;;;;;12.20;99.90;;;;;;4997139;28;19917;-88
2023/03/19 04:10:41;;;;;;;;;;;12.10;99.90;;;;;;4996999;28;19909;-88
2023/03/19 04:13:09;;;;;;;;;;;12.10;99.90;;;;;;4997360;28;19910;-88
2023/03/19 04:15:41;;;;;;;;;;;12.10;99.90;;;;;;4981832;28;19914;-88
2023/03/19 04:18:08;;;;;;;;;;;12.10;99.90;;;;;;4980661;28;20367;-90
2023/03/19 04:20:34;;;;;;;;;;;12.10;99.90;;;;;;4997111;28;19939;-90
2023/03/19 04:23:00;;;;;;;;;;;12.10;99.90;;;;;;5000951;28;19914;-89
2023/03/19 04:25:40;;;;;;;;;;;12.10;99.90;;;;;;4996770;28;20415;-89
2023/03/19 04:28:05;;;;;;;;;;;12.00;99.90;;;;;;4996057;28;20378;-89
2023/03/19 04:33:35;;;;;;;;;;;12.10;99.90;;;;;;4997747;28;20270;-90
2023/03/19 04:36:03;;;;;;;;;;;12.00;99.90;;;;;;5005142;28;19898;-94
2023/03/19 04:38:29;;;;;;;;;;;12.00;99.90;;;;;;5020576;28;19918;-95
2023/03/19 04:40:58;;;;;;;;;;;12.00;99.90;;;;;;5006190;28;19914;-94
2023/03/19 04:43:24;;;;;;;;;;;11.90;99.90;;;;;;5006393;28;19977;-93
2023/03/19 04:45:56;;;;;;;;;;;11.90;99.90;;;;;;5007773;28;19921;-93
2023/03/19 04:48:21;;;;;;;;;;;11.90;99.90;;;;;;5006066;28;20016;-94
2023/03/19 04:50:50;;;;;;;;;;;11.80;99.90;;;;;;5003464;28;19941;-93
2023/03/19 04:53:19;;;;;;;;;;;11.80;99.90;;;;;;5002993;28;20012;-94
2023/03/19 04:55:46;;;;;;;;;;;11.70;99.90;;;;;;5005362;28;19996;-93
2023/03/19 04:58:12;;;;;;;;;;;11.70;99.90;;;;;;5001633;28;20084;-93
2023/03/19 05:00:37;;;;;;;;;;;11.70;99.90;;;;;;5004292;28;20355;-95
2023/03/19 05:03:03;;;;;;;;;;;11.60;99.90;;;;;;5005069;28;19948;-94
2023/03/19 05:05:32;;;;;;;;;;;11.60;99.90;;;;;;5007593;28;20091;-94
2023/03/19 05:08:03;;;;;;;;;;;11.70;99.90;;;;;;5008229;28;19910;-93
2023/03/19 05:10:28;;;;;;;;;;;11.60;99.90;;;;;;5008007;28;19910;-89
2023/03/19 05:12:54;;;;;;;;;;;11.60;99.90;;;;;;5015712;28;19902;-89
2023/03/19 05:15:20;;;;;;;;;;;11.60;99.90;;;;;;5014662;28;19913;-90
2023/03/19 05:17:49;;;;;;;;;;;11.60;99.90;;;;;;5010767;28;19968;-89
2023/03/19 05:20:15;;;;;;;;;;;11.60;99.90;;;;;;5004162;28;19953;-89
2023/03/19 05:22:41;;;;;;;;;;;11.60;99.90;;;;;;5002164;28;19918;-93
2023/03/19 05:25:07;;;;;;;;;;;11.60;99.90;;;;;;5009164;28;19964;-91
2023/03/19 05:27:32;;;;;;;;;;;11.60;99.90;;;;;;5011675;28;19914;-90
2023/03/19 05:30:01;;;;;;;;;;;11.60;99.90;;;;;;4983910;28;19936;-90
2023/03/19 05:32:30;;;;;;;;;;;11.50;99.90;;;;;;4983790;28;19910;-90
2023/03/19 05:34:58;;;;;;;;;;;11.50;99.90;;;;;;4983590;28;19910;-91
2023/03/19 05:37:24;;;;;;;;;;;11.60;99.90;;;;;;4983989;28;20359;-90
2023/03/19 05:39:50;;;;;;;;;;;11.60;99.90;;;;;;4984384;28;19921;-89
2023/03/19 05:42:16;;;;;;;;;;;11.60;99.90;;;;;;4968289;28;19914;-91
2023/03/19 05:44:42;;;;;;;;;;;11.60;99.90;;;;;;4985990;28;19917;-90
2023/03/19 05:47:08;;;;;;;;;;;11.70;99.90;;;;;;4987165;28;19918;-91
2023/03/19 05:49:34;;;;;;;;;;;11.60;99.90;;;;;;4974045;28;19918;-90
2023/03/19 05:52:02;;;;;;;;;;;11.70;99.90;;;;;;4998684;28;22133;-90
2023/03/19 05:54:28;;;;;;;;;;;11.70;99.90;;;;;;4999852;28;19894;-90
2023/03/19 05:56:53;;;;;;;;;;;11.60;99.90;;;;;;4991436;28;19962;-89
2023/03/19 05:59:19;;;;;;;;;;;11.70;99.90;;;;;;4982721;28;19996;-93
2023/03/19 06:01:46;;;;;;;;;;;11.60;99.90;;;;;;4986592;28;20267;-93
2023/03/19 06:04:12;;;;;;;;;;;11.70;99.90;;;;;;4985908;28;19969;-94
2023/03/19 06:06:38;;;;;;;;;;;11.70;99.90;;;;;;4984952;28;19952;-93
2023/03/19 06:09:06;;;;;;;;;;;11.60;99.90;;;;;;4984281;28;19914;-93
2023/03/19 06:11:35;;;;;;;;;;;11.60;99.90;;;;;;4986125;28;19909;-94
2023/03/19 06:14:01;;;;;;;;;;;11.70;99.90;;;;;;4988253;28;19910;-93
2023/03/19 06:16:27;;;;;;;;;;;11.60;99.90;;;;;;4968299;28;19964;-90
2023/03/19 06:18:52;;;;;;;;;;;11.60;99.90;;;;;;4973105;28;20000;-90
2023/03/19 06:21:18;;;;;;;;;;;11.60;99.90;;;;;;4974065;28;19918;-89
2023/03/19 06:23:44;;;;;;;;;;;11.70;99.90;;;;;;4962766;28;19915;-87
2023/03/19 06:26:09;;;;;;;;;;;11.70;99.90;;;;;;4978018;28;19914;-87
2023/03/19 06:28:35;;;;;;;;;;;11.70;99.90;;;;;;4961316;28;19925;-87
2023/03/19 06:31:00;;;;;;;;;;;11.70;99.90;;;;;;4990246;28;19925;-87
2023/03/19 06:33:54;;;;;;;;;;;11.70;99.90;;;;;;4963227;28;20266;-87
2023/03/19 06:36:22;;;;;;;;;;;11.70;99.90;;;;;;4979449;28;19914;-87
2023/03/19 06:38:48;;;;;;;;;;;11.70;99.90;;;;;;4977544;28;19917;-87
2023/03/19 06:41:13;;;;;;;;;;;11.70;99.90;;;;;;4977568;28;19910;-87
2023/03/19 06:43:40;;;;;;;;;;;11.70;99.90;;;;;;4977565;28;20340;-87
2023/03/19 06:46:07;;;;;;;;;;;11.70;99.90;;;;;;4977592;28;20001;-87
2023/03/19 06:48:33;;;;;;;;;;;11.70;99.90;;;;;;4961125;28;19918;-87
2023/03/19 06:50:59;;;;;;;;;;;11.70;99.90;;;;;;4962111;28;19981;-87
2023/03/19 06:53:28;;;;;;;;;;;11.70;99.90;;;;;;4961470;28;19921;-87
2023/03/19 06:55:53;;;;;;;;;;;11.70;99.90;;;;;;4975996;28;19921;-86
2023/03/19 06:58:19;;;;;;;;;;;11.70;99.90;;;;;;4976935;28;19920;-87
2023/03/19 07:00:46;;;;;;;;;;;11.70;99.90;;;;;;4975767;28;20004;-87
2023/03/19 07:03:12;;;;;;;;;;;11.70;99.90;;;;;;4976921;28;20414;-87
2023/03/19 07:05:37;;;;;;;;;;;11.80;99.90;;;;;;4994985;28;19956;-90
2023/03/19 07:08:03;;;;;;;;;;;11.70;99.90;;;;;;4956840;28;19922;-89
2023/03/19 07:10:28;;;;;;;;;;;11.80;99.90;;;;;;4959297;28;19910;-90
2023/03/19 07:12:54;;;;;;;;;;;11.80;99.90;;;;;;4962161;28;19914;-89
2023/03/19 07:15:20;;;;;;;;;;;11.80;99.90;;;;;;4961871;28;19981;-90
2023/03/19 07:17:46;;;;;;;;;;;11.80;99.90;;;;;;4963937;28;20359;-89
2023/03/19 07:20:12;;;;;;;;;;;11.80;99.90;;;;;;4981682;28;19917;-90
2023/03/19 07:22:38;;;;;;;;;;;11.80;99.90;;;;;;4981739;28;19921;-89
2023/03/19 07:25:04;;;;;;;;;;;11.90;99.90;;;;;;4979162;28;20016;-88
2023/03/19 07:27:30;;;;;;;;;;;11.80;99.90;;;;;;4997101;28;19918;-89
2023/03/19 07:29:55;;;;;;;;;;;11.80;99.90;;;;;;5016640;28;19918;-88
2023/03/19 07:32:22;;;;;;;;;;;11.80;99.90;;;;;;4979198;28;20382;-89
2023/03/19 07:34:48;;;;;;;;;;;11.80;99.90;;;;;;4981651;28;19910;-90
2023/03/19 07:37:13;;;;;;;;;;;11.80;99.90;;;;;;4965327;28;19921;-89
2023/03/19 07:39:39;;;;;;;;;;;11.80;99.90;;;;;;4981914;28;19910;-90
2023/03/19 07:42:04;;;;;;;;;;;11.80;99.90;;;;;;4975291;28;19914;-90
2023/03/19 07:44:30;;;;;;;;;;;11.90;99.90;;;;;;4965531;28;19928;-90
2023/03/19 07:46:55;;;;;;;;;;;11.90;99.90;;;;;;4981040;28;20271;-87
2023/03/19 07:49:21;;;;;;;;;;;11.90;99.90;;;;;;4980422;28;19914;-87
2023/03/19 07:51:47;;;;;;;;;;;11.90;99.90;;;;;;4964873;28;19914;-87
2023/03/19 07:54:13;;;;;;;;;;;12.00;99.90;;;;;;4980256;28;19960;-87
2023/03/19 07:56:38;;;;;;;;;;;12.00;99.90;;;;;;4980771;28;19910;-88
2023/03/19 07:59:04;;;;;;;;;;;12.00;99.90;;;;;;4981140;28;20020;-89
2023/03/19 08:01:30;;;;;;;;;;;12.00;99.90;;;;;;4983439;28;20370;-89
2023/03/19 08:03:56;;;;;;;;;;;12.00;99.90;;;;;;4980865;28;20311;-89
2023/03/19 08:06:22;;;;;;;;;;;12.00;99.90;;;;;;4980756;28;20001;-89
2023/03/19 08:08:48;;;;;;;;;;;12.00;99.90;;;;;;4964703;28;20260;-89
2023/03/19 08:11:14;;;;;;;;;;;12.00;99.90;;;;;;4980613;28;19917;-89
2023/03/19 08:13:40;;;;;;;;;;;12.00;99.90;;;;;;4980535;28;20008;-87
2023/03/19 08:16:05;;;;;;;;;;;12.00;99.90;;;;;;4966423;28;19954;-86
2023/03/19 08:18:31;;;;;;;;;;;12.00;99.90;;;;;;4944508;28;19929;-86
2023/03/19 08:20:57;;;;;;;;;;;12.00;99.90;;;;;;4973496;28;20004;-87
2023/03/19 08:23:22;;;;;;;;;;;12.10;99.90;;;;;;4963768;28;19914;-87
2023/03/19 08:25:50;;;;;;;;;;;12.10;99.90;;;;;;4979659;28;19940;-87
2023/03/19 08:28:18;;;;;;;;;;;12.10;99.90;;;;;;4992002;28;19921;-87
2023/03/19 08:30:44;;;;;;;;;;;12.00;99.90;;;;;;4986025;28;19921;-87
2023/03/19 08:33:09;;;;;;;;;;;12.10;99.90;;;;;;5002592;28;20064;-89
2023/03/19 08:35:35;;;;;;;;;;;12.10;99.90;;;;;;4980962;28;19921;-89
2023/03/19 08:38:01;;;;;;;;;;;12.10;99.90;;;;;;4998210;28;20294;-90
2023/03/19 08:40:27;;;;;;;;;;;12.20;99.90;;;;;;4972761;28;19921;-89
2023/03/19 08:42:53;;;;;;;;;;;12.10;99.90;;;;;;4995154;28;19914;-89
2023/03/19 08:45:20;;;;;;;;;;;12.10;99.90;;;;;;4980882;28;20306;-87
2023/03/19 08:47:45;;;;;;;;;;;12.20;99.90;;;;;;4995678;28;19910;-87
2023/03/19 08:50:11;;;;;;;;;;;12.20;99.90;;;;;;4979344;28;20397;-87
2023/03/19 08:52:37;;;;;;;;;;;12.20;99.90;;;;;;4979471;28;19913;-87
2023/03/19 08:55:02;;;;;;;;;;;12.20;99.90;;;;;;4995844;28;19917;-87
2023/03/19 08:57:29;;;;;;;;;;;12.20;99.90;;;;;;4979731;28;20295;-87
2023/03/19 08:59:54;;;;;;;;;;;12.20;99.90;;;;;;4979498;28;19914;-87
2023/03/19 09:02:39;;;;;;;;;;;12.30;99.90;;;;;;4995914;28;20302;-89
2023/03/19 09:05:08;;;;;;;;;;;12.30;99.90;;;;;;4979840;28;20252;-89
2023/03/19 09:07:36;;;;;;;;;;;12.40;99.90;;;;;;4996230;28;19968;-89
2023/03/19 09:10:04;;;;;;;;;;;12.40;99.90;;;;;;4996286;28;20351;-91
2023/03/19 09:12:29;;;;;;;;;;;12.50;99.90;;;;;;4981493;28;20079;-91
2023/03/19 09:14:55;;;;;;;;;;;12.50;99.90;;;;;;4995850;28;19920;-91
2023/03/19 09:17:20;;;;;;;;;;;12.60;99.90;;;;;;4995857;28;20016;-91
2023/03/19 09:19:46;;;;;;;;;;;12.70;99.90;;;;;;4979816;28;19914;-93
2023/03/19 09:22:11;;;;;;;;;;;12.80;99.90;;;;;;5000058;28;19910;-93
2023/03/19 09:24:37;;;;;;;;;;;12.90;99.90;;;;;;4983667;28;19914;-93
2023/03/19 09:27:03;;;;;;;;;;;12.90;99.90;;;;;;4997244;28;20437;-94
2023/03/19 09:29:28;;;;;;;;;;;13.00;99.90;;;;;;5001081;28;19961;-95
2023/03/19 09:31:54;;;;;;;;;;;13.10;99.90;;;;;;4982684;28;20354;-90
2023/03/19 09:34:20;;;;;;;;;;;13.10;99.90;;;;;;4983258;28;19971;-91
2023/03/19 09:36:45;;;;;;;;;;;13.20;99.90;;;;;;4982332;28;19913;-87
2023/03/19 09:39:11;;;;;;;;;;;13.20;99.90;;;;;;4997958;28;19910;-88
2023/03/19 09:41:48;;;;;;;;;;;13.20;99.90;;;;;;4998265;28;19975;-88
2023/03/19 09:44:46;;;;;;;;;;;13.20;99.90;;;;;;4997992;28;19910;-87
2023/03/19 09:47:11;;;;;;;;;;;13.20;99.90;;;;;;4955366;28;20236;-87
2023/03/19 09:49:42;;;;;;;;;;;13.30;99.90;;;;;;4997825;28;19919;-87
2023/03/19 09:52:29;;;;;;;;;;;13.30;99.90;;;;;;4981567;28;19924;-87
2023/03/19 09:55:09;;;;;;;;;;;13.40;99.90;;;;;;4997079;28;20006;-87
2023/03/19 09:57:35;;;;;;;;;;;13.40;99.90;;;;;;4998894;28;19965;-87
2023/03/19 10:00:05;;;;;;;;;;;13.50;99.90;;;;;;4982384;28;19937;-87
2023/03/19 10:02:37;;;;;;;;;;;13.50;99.90;;;;;;4998623;28;20378;-87
2023/03/19 10:05:26;;;;;;;;;;;13.50;99.90;;;;;;4997545;28;20445;-87
2023/03/19 10:07:51;;;;;;;;;;;13.60;99.90;;;;;;4997623;28;20275;-87
2023/03/19 10:10:25;;;;;;;;;;;13.60;99.90;;;;;;4998910;28;19913;-91
2023/03/19 10:13:26;;;;;;;;;;;13.60;99.90;;;;;;4999040;28;19910;-91
2023/03/19 10:15:52;;;;;;;;;;;13.60;99.90;;;;;;4957948;28;19935;-93
2023/03/19 10:18:20;;;;;;;;;;;13.70;99.90;;;;;;4981952;28;19921;-92
2023/03/19 10:20:45;;;;;;;;;;;13.70;99.90;;;;;;4998130;28;20009;-92
2023/03/19 10:23:29;;;;;;;;;;;13.80;99.90;;;;;;4998368;28;19941;-92
2023/03/19 10:25:57;;;;;;;;;;;13.80;99.90;;;;;;5003253;28;19972;-91
2023/03/19 10:28:24;;;;;;;;;;;13.80;99.90;;;;;;5017790;28;19909;-90
2023/03/19 10:31:02;;;;;;;;;;;13.80;99.90;;;;;;5018035;28;19925;-87
2023/03/19 10:33:40;;;;;;;;;;;13.80;99.90;;;;;;5021121;28;19913;-90
2023/03/19 10:36:08;;;;;;;;;;;13.80;99.90;;;;;;5020070;28;20004;-90
2023/03/19 10:38:38;;;;;;;;;;;13.90;99.90;;;;;;5019028;28;19916;-90
2023/03/19 10:41:09;;;;;;;;;;;13.90;99.90;;;;;;5018533;28;20274;-90
2023/03/19 10:43:35;;;;;;;;;;;14.00;99.90;;;;;;5018373;28;19913;-91
2023/03/19 10:46:01;;;;;;;;;;;14.00;99.90;;;;;;5002378;28;20381;-91
2023/03/19 10:48:28;;;;;;;;;;;14.10;99.90;;;;;;5020121;28;19917;-92
2023/03/19 10:50:57;;;;;;;;;;;14.10;99.90;;;;;;5004655;28;19914;-92
2023/03/19 10:53:26;;;;;;;;;;;14.10;99.90;;;;;;5011252;28;19913;-92
2023/03/19 10:56:03;;;;;;;;;;;14.20;99.90;;;;;;5029413;28;19909;-92
2023/03/19 10:58:30;;;;;;;;;;;14.30;99.90;;;;;;5028271;28;19913;-90
2023/03/19 11:01:04;;;;;;;;;;;14.40;99.90;;;;;;5023836;28;19908;-90
2023/03/19 11:03:41;;;;;;;;;;;14.40;99.90;;;;;;5023613;28;19913;-90
2023/03/19 11:09:18;;;;;;;;;;;14.70;99.90;;;;;;5038901;28;20003;-88
2023/03/19 11:11:48;;;;;;;;;;;14.80;99.90;;;;;;5023080;28;19915;-88
2023/03/19 11:14:18;;;;;;;;;;;14.90;99.90;;;;;;5023325;28;19996;-88
2023/03/19 11:20:06;;;;;;;;;;;15.00;99.90;;;;;;5040476;28;19916;-86
2023/03/19 11:22:36;;;;;;;;;;;15.00;99.90;;;;;;5022725;28;19909;-87
2023/03/19 11:25:13;;;;;;;;;;;15.10;99.90;;;;;;5023003;28;19996;-87
2023/03/19 11:27:39;;;;;;;;;;;15.20;99.90;;;;;;5022683;28;19917;-87
2023/03/19 11:30:20;;;;;;;;;;;15.30;99.90;;;;;;5020054;28;19921;-88
2023/03/19 11:33:05;;;;;;;;;;;15.30;99.90;;;;;;5003766;28;20377;-91
2023/03/19 11:35:37;;;;;;;;;;;15.50;99.90;;;;;;5003972;28;19914;-90
2023/03/19 11:38:15;;;;;;;;;;;15.60;99.90;;;;;;5003686;28;19909;-91
2023/03/19 11:40:52;;;;;;;;;;;15.60;99.90;;;;;;5003966;28;19913;-91
2023/03/19 11:43:24;;;;;;;;;;;15.70;99.90;;;;;;5004593;28;20335;-91
2023/03/19 11:45:59;;;;;;;;;;;15.70;99.90;;;;;;5004254;28;19914;-90
2023/03/19 11:48:43;;;;;;;;;;;15.80;99.90;;;;;;5005223;28;19917;-90
2023/03/19 11:51:21;;;;;;;;;;;15.80;99.90;;;;;;5003466;28;20012;-90
2023/03/19 11:54:05;;;;;;;;;;;15.80;99.90;;;;;;5004128;28;19916;-90
2023/03/19 11:56:32;;;;;;;;;;;15.80;99.90;;;;;;5001264;28;19920;-91
2023/03/19 11:58:57;;;;;;;;;;;15.80;99.90;;;;;;5003703;28;19909;-90
2023/03/19 12:01:24;;;;;;;;;;;15.80;99.90;;;;;;5003549;28;19931;-90
2023/03/19 12:04:02;;;;;;;;;;;15.80;99.90;;;;;;5000564;28;19909;-91
2023/03/19 12:06:38;;;;;;;;;;;15.90;99.90;;;;;;5000636;28;19909;-91
2023/03/19 12:09:27;;;;;;;;;;;15.90;99.90;;;;;;5000195;28;19955;-89
2023/03/19 12:11:56;;;;;;;;;;;15.90;99.90;;;;;;5000356;28;19909;-90
2023/03/19 12:14:26;;;;;;;;;;;16.00;99.90;;;;;;5000797;28;20351;-90
2023/03/19 12:17:06;;;;;;;;;;;16.10;99.90;;;;;;5000301;28;19916;-89
2023/03/19 12:19:41;;;;;;;;;;;16.10;99.90;;;;;;5000216;28;20335;-87
2023/03/19 12:22:09;;;;;;;;;;;16.10;99.90;;;;;;4999682;28;19941;-88
2023/03/19 12:24:38;;;;;;;;;;;16.20;99.90;;;;;;4999758;28;19963;-89
2023/03/19 12:27:14;;;;;;;;;;;16.20;99.90;;;;;;4997441;28;19910;-89
2023/03/19 12:29:40;;;;;;;;;;;16.20;99.90;;;;;;4977140;28;19954;-90
2023/03/19 12:32:13;;;;;;;;;;;16.20;99.90;;;;;;4984324;28;20380;-89
2023/03/19 12:34:39;;;;;;;;;;;16.30;99.90;;;;;;4992091;28;19909;-89
2023/03/19 12:37:15;;;;;;;;;;;16.40;99.90;;;;;;4996493;28;19924;-90
2023/03/19 12:40:00;;;;;;;;;;;16.40;99.90;;;;;;5005373;28;19933;-89
2023/03/19 12:42:28;;;;;;;;;;;16.50;99.90;;;;;;5012049;28;20008;-90
2023/03/19 12:44:56;;;;;;;;;;;16.60;99.90;;;;;;5004648;28;20271;-89
2023/03/19 12:47:32;;;;;;;;;;;16.70;99.90;;;;;;4996500;28;19910;-89
2023/03/19 12:50:25;;;;;;;;;;;16.70;99.90;;;;;;4996363;28;19924;-89
2023/03/19 12:52:51;;;;;;;;;;;16.80;99.90;;;;;;4993371;28;19918;-90
2023/03/19 12:55:19;;;;;;;;;;;16.80;99.90;;;;;;4996622;28;19910;-90
2023/03/19 12:57:58;;;;;;;;;;;16.90;99.90;;;;;;5017319;28;19909;-89
2023/03/19 13:00:35;;;;;;;;;;;16.90;99.90;;;;;;5012001;28;20012;-89
2023/03/19 13:03:09;;;;;;;;;;;17.00;99.90;;;;;;5001514;28;19952;-90
2023/03/19 13:05:42;;;;;;;;;;;17.00;99.90;;;;;;4996539;28;19941;-89
2023/03/19 13:08:12;;;;;;;;;;;17.10;99.90;;;;;;4995919;28;19910;-89
2023/03/19 13:10:37;;;;;;;;;;;17.10;99.90;;;;;;4996922;28;19914;-90
2023/03/19 13:13:12;;;;;;;;;;;17.20;99.90;;;;;;5017933;28;19915;-92
2023/03/19 13:15:40;;;;;;;;;;;17.30;99.90;;;;;;5028530;28;19917;-91
2023/03/19 13:18:24;;;;;;;;;;;17.40;99.90;;;;;;5033085;28;19909;-90
2023/03/19 13:20:53;;;;;;;;;;;17.50;99.90;;;;;;5027052;28;19913;-87
2023/03/19 13:23:25;;;;;;;;;;;17.60;99.90;;;;;;5023299;28;20000;-94
2023/03/19 13:25:53;;;;;;;;;;;17.70;99.90;;;;;;5031522;28;19901;-94
2023/03/19 13:28:41;;;;;;;;;;;17.70;99.90;;;;;;5038839;28;19965;-93
2023/03/19 13:31:16;;;;;;;;;;;17.80;99.90;;;;;;5012767;28;19926;-92
2023/03/19 13:33:50;;;;;;;;;;;17.80;99.90;;;;;;5015184;28;19910;-87
2023/03/19 13:36:16;;;;;;;;;;;17.80;99.90;;;;;;5015280;28;19909;-90
2023/03/19 13:38:46;;;;;;;;;;;17.80;99.90;;;;;;4998694;28;19914;-89
2023/03/19 13:41:31;;;;;;;;;;;17.90;99.90;;;;;;5014747;28;19913;-89
2023/03/19 13:43:56;;;;;;;;;;;18.00;99.90;;;;;;5014610;28;20346;-89
2023/03/19 13:46:22;;;;;;;;;;;18.00;99.90;;;;;;4981385;28;19921;-89
2023/03/19 13:48:51;;;;;;;;;;;18.10;99.90;;;;;;4975327;28;20304;-90
2023/03/19 13:51:17;;;;;;;;;;;18.10;99.90;;;;;;4991553;28;19920;-89
2023/03/19 13:54:01;;;;;;;;;;;18.10;99.90;;;;;;4975282;28;19910;-89
2023/03/19 13:56:27;;;;;;;;;;;18.20;99.90;;;;;;4976656;28;19917;-90
2023/03/19 13:59:12;;;;;;;;;;;18.20;99.90;;;;;;4975358;28;20361;-90
2023/03/19 14:01:39;;;;;;;;;;;18.30;99.90;;;;;;4975485;28;19910;-88
2023/03/19 14:04:18;;;;;;;;;;;18.40;99.90;;;;;;4975540;28;19910;-86
2023/03/19 14:06:46;;;;;;;;;;;18.40;99.90;;;;;;4975342;28;20482;-90
2023/03/19 14:09:30;;;;;;;;;;;18.40;99.90;;;;;;4982567;28;19920;-90
2023/03/19 14:12:07;;;;;;;;;;;18.50;99.90;;;;;;4995786;28;20371;-94
2023/03/19 14:14:37;;;;;;;;;;;18.60;99.90;;;;;;4995654;28;20420;-94
2023/03/19 14:17:03;;;;;;;;;;;18.60;99.90;;;;;;4995520;28;19910;-95
2023/03/19 14:19:32;;;;;;;;;;;18.60;99.90;;;;;;4993239;28;19914;-89
2023/03/19 14:21:58;;;;;;;;;;;18.70;99.90;;;;;;4975071;28;19911;-87
2023/03/19 14:24:32;;;;;;;;;;;18.70;99.90;;;;;;4990082;28;19937;-87
2023/03/19 14:27:01;;;;;;;;;;;18.80;99.90;;;;;;4994092;28;20004;-89
2023/03/19 14:29:27;;;;;;;;;;;18.80;99.90;;;;;;4994598;28;19941;-89
2023/03/19 14:31:54;;;;;;;;;;;18.80;99.90;;;;;;4994067;28;19926;-90
2023/03/19 14:34:29;;;;;;;;;;;18.80;99.90;;;;;;4994929;28;19972;-90
2023/03/19 14:36:55;;;;;;;;;;;18.70;99.90;;;;;;4994806;28;20351;-89
2023/03/19 14:39:26;;;;;;;;;;;18.70;99.90;;;;;;4995849;28;19909;-91
2023/03/19 14:41:58;;;;;;;;;;;18.70;99.90;;;;;;4994659;28;19960;-91
2023/03/19 14:44:36;;;;;;;;;;;18.70;99.30;;;;;;4994507;28;19913;-90
2023/03/19 14:47:20;;;;;;;;;;;18.70;99.90;;;;;;4995331;28;19910;-92
2023/03/19 14:49:55;;;;;;;;;;;18.60;99.90;;;;;;4994409;28;19960;-89